Armstrong Station, Canada
Current Conditions -  °F | °C
As of 10:00 PM on Sunday 19 Oct 2014 (Local Time) from CYPL Reporting Station
Haze Haze  
Wind Chill: 36°   Ceiling: 200
Heat Index: 39°   Visibility: 0.75mi
Dew Point: 37°   Wind: 5mph
Humidity: 93%   Direction: 310°NW
Pressure: 29.74"   Gusts: NA
Location:  50.3°N, 89.03°W
Report Text: CYPL 200200Z 31004KT 270V340 3/4SM BR VV002 04/03 A2974 RMK FG8 LAST OBS/NEXT 201100Z SLP089
Loading
Personal Weather Stations






























Interactive Weather Map
Tropical Storm Tracking
New forecast layout! Learn more

10-Day Weather Forecast

Advertisements
Track Severe Weather on mobile